Time;durP1;ratioP1;P1;durP2;ratioP2;P2;SDS_P1;SDS_P2;PMS_P1;PMS_P2;Temp;Humidity;BMP_temperature;BMP_pressure;BME280_temperature;BME280_humidity;BME280_pressure;Samples;Min_cycle;Max_cycle;Signal;HPM_P1;HPM_P2
2022/03/27 00:01:36;;;;;;;10.77;8.00;;;;;;;10.36;57.52;101050.25;4984590;28;102321;-50
2022/03/27 00:04:03;;;;;;;10.90;8.20;;;;;;;10.36;57.72;101050.25;4988272;28;102059;-51
2022/03/27 00:06:29;;;;;;;9.02;7.50;;;;;;;10.35;57.46;101046.69;4990316;28;104050;-51
2022/03/27 00:08:59;;;;;;;9.98;8.35;;;;;;;10.37;57.87;101043.72;4989257;28;102222;-51
2022/03/27 00:11:29;;;;;;;9.27;8.35;;;;;;;10.35;57.83;101043.97;4990584;28;101956;-51
2022/03/27 00:13:58;;;;;;;9.88;7.88;;;;;;;10.36;57.37;101039.34;4988710;28;101988;-51
2022/03/27 00:16:30;;;;;;;11.75;8.63;;;;;;;10.36;57.77;101045.63;4990813;28;103923;-50
2022/03/27 00:18:58;;;;;;;10.10;7.82;;;;;;;10.37;57.93;101041.00;4991650;28;102374;-51
2022/03/27 00:21:36;;;;;;;9.40;7.70;;;;;;;10.37;57.38;101036.38;4990543;28;102260;-50
2022/03/27 00:24:05;;;;;;;10.05;8.30;;;;;;;10.37;57.72;101035.53;4990114;28;102144;-50
2022/03/27 00:26:33;;;;;;;11.25;7.95;;;;;;;10.37;57.59;101030.09;4988501;28;103798;-50
2022/03/27 00:29:00;;;;;;;10.95;8.27;;;;;;;10.36;57.63;101028.47;4991045;28;102238;-50
2022/03/27 00:31:28;;;;;;;10.02;7.50;;;;;;;10.37;58.07;101030.91;4979458;28;102552;-51
2022/03/27 00:33:55;;;;;;;10.43;7.87;;;;;;;10.37;57.33;101025.47;4986381;28;102450;-51
2022/03/27 00:36:21;;;;;;;9.93;8.10;;;;;;;10.37;57.99;101027.38;4990483;28;104344;-51
2022/03/27 00:38:48;;;;;;;8.50;7.15;;;;;;;10.38;57.76;101023.56;4992821;28;102730;-51
2022/03/27 00:41:17;;;;;;;9.68;7.72;;;;;;;10.37;57.45;101024.66;4994289;28;102511;-50
2022/03/27 00:43:44;;;;;;;10.57;8.25;;;;;;;10.37;57.92;101016.50;4993772;28;102482;-51
2022/03/27 00:46:11;;;;;;;11.00;8.00;;;;;;;10.37;57.25;101024.66;4994439;28;103839;-51
2022/03/27 00:48:39;;;;;;;10.18;7.93;;;;;;;10.38;57.57;101023.56;4994334;28;102434;-51
2022/03/27 00:51:06;;;;;;;10.75;8.18;;;;;;;10.38;57.53;101026.28;4994665;28;102574;-50
2022/03/27 00:53:33;;;;;;;10.85;8.50;;;;;;;10.37;57.72;101035.53;4993119;28;102656;-51
2022/03/27 00:56:00;;;;;;;10.77;8.18;;;;;;;10.37;57.68;101032.81;4994205;28;103988;-51
2022/03/27 00:58:28;;;;;;;10.73;7.72;;;;;;;10.38;57.63;101031.72;4994016;28;102866;-50
2022/03/27 01:01:02;;;;;;;9.60;7.93;;;;;;;10.37;57.68;101030.91;4993550;28;102080;-51
2022/03/27 01:03:31;;;;;;;10.85;7.63;;;;;;;10.38;57.90;101037.19;4993274;28;102875;-51
2022/03/27 01:05:57;;;;;;;10.10;8.50;;;;;;;10.38;57.85;101043.44;4993790;28;103922;-51
2022/03/27 01:11:15;;;;;;;9.38;8.25;;;;;;;10.38;57.90;101037.19;4993917;28;102432;-51
2022/03/27 01:13:49;;;;;;;8.95;7.63;;;;;;;10.38;57.90;101039.91;4991970;28;102660;-50
2022/03/27 01:16:27;;;;;;;9.00;7.43;;;;;;;10.36;58.24;101023.84;4993428;28;103960;-50
2022/03/27 01:18:54;;;;;;;10.07;8.13;;;;;;;10.38;57.90;101026.28;4990976;28;102213;-50
2022/03/27 01:21:22;;;;;;;9.70;7.63;;;;;;;10.36;57.53;101012.97;4992900;28;101902;-51
2022/03/27 01:23:49;;;;;;;10.65;8.18;;;;;;;10.38;57.36;101018.13;4991722;28;102826;-51
2022/03/27 01:26:16;;;;;;;9.75;8.00;;;;;;;10.38;57.90;101015.41;4973492;28;103943;-50
2022/03/27 01:28:44;;;;;;;11.02;8.50;;;;;;;10.38;58.25;101015.41;4985490;28;102371;-51
2022/03/27 01:31:10;;;;;;;9.68;7.97;;;;;;;10.39;57.52;101011.63;4991848;28;102831;-51
2022/03/27 01:33:38;;;;;;;9.25;7.60;;;;;;;10.38;58.00;101004.53;4991528;28;103020;-51
2022/03/27 01:36:05;;;;;;;11.52;8.20;;;;;;;10.38;58.04;101015.41;4993358;28;103904;-51
2022/03/27 01:38:33;;;;;;;11.25;8.18;;;;;;;10.38;57.56;101034.47;4989956;28;101964;-51
2022/03/27 01:40:59;;;;;;;11.55;7.88;;;;;;;10.38;58.03;101037.19;4992541;28;102184;-51
2022/03/27 01:43:26;;;;;;;9.77;7.35;;;;;;;10.38;57.80;101038.00;4992587;28;102540;-51
2022/03/27 01:45:53;;;;;;;8.98;7.65;;;;;;;10.38;58.06;101039.91;4991614;28;103788;-51
2022/03/27 01:48:19;;;;;;;9.77;7.00;;;;;;;10.39;57.59;101041.56;4992695;28;101955;-51
2022/03/27 01:50:57;;;;;;;13.18;8.35;;;;;;;10.38;57.36;101042.63;4992252;28;102345;-51
2022/03/27 01:53:24;;;;;;;11.40;7.97;;;;;;;10.39;57.70;101060.59;4983194;28;102513;-51
2022/03/27 01:55:52;;;;;;;10.35;7.85;;;;;;;10.38;58.11;101056.22;4992586;28;103605;-50
2022/03/27 01:58:18;;;;;;;9.63;7.60;;;;;;;10.38;57.78;101075.25;4992395;28;102490;-51
2022/03/27 02:00:45;;;;;;;9.50;7.20;;;;;;;10.38;58.09;101062.47;4980521;28;102434;-51
2022/03/27 02:03:12;;;;;;;9.70;8.32;;;;;;;10.38;57.98;101051.59;4980769;28;102608;-51
2022/03/27 02:05:38;;;;;;;9.85;7.88;;;;;;;10.38;57.47;101073.34;4992566;28;103849;-51
2022/03/27 02:08:05;;;;;;;9.50;7.60;;;;;;;10.39;57.74;101085.09;4992947;28;102788;-51
2022/03/27 02:10:33;;;;;;;8.18;7.07;;;;;;;10.39;58.04;101076.94;4988885;28;102009;-50
2022/03/27 02:13:01;;;;;;;11.90;8.15;;;;;;;10.39;58.19;101085.09;4991410;28;102232;-51
2022/03/27 02:15:28;;;;;;;12.20;7.72;;;;;;;10.39;58.23;101095.97;4992192;28;103983;-51
2022/03/27 02:17:57;;;;;;;11.20;7.85;;;;;;;10.40;57.90;101094.88;4990379;28;102304;-51
2022/03/27 02:20:25;;;;;;;9.77;8.10;;;;;;;10.38;57.80;101091.59;4992816;28;101995;-51
2022/03/27 02:22:51;;;;;;;10.43;7.90;;;;;;;10.39;57.72;101104.94;4985354;28;103681;-51
2022/03/27 02:25:18;;;;;;;9.80;7.32;;;;;;;10.39;57.77;101115.84;4972619;28;103951;-51
2022/03/27 02:27:45;;;;;;;11.55;8.60;;;;;;;10.39;58.10;101117.75;4972761;28;102555;-51
2022/03/27 02:30:15;;;;;;;12.15;8.38;;;;;;;10.39;58.48;101106.84;4989056;28;101991;-50
2022/03/27 02:32:41;;;;;;;11.48;8.55;;;;;;;10.39;58.34;101113.13;4990773;28;102279;-51
2022/03/27 02:35:08;;;;;;;12.73;8.52;;;;;;;10.39;58.28;101106.84;4987038;28;103893;-51
2022/03/27 02:37:35;;;;;;;12.68;8.75;;;;;;;10.39;58.05;101104.13;4983219;28;102277;-50
2022/03/27 02:40:01;;;;;;;12.95;8.13;;;;;;;10.40;58.34;101113.94;4992499;28;102533;-51
2022/03/27 02:42:28;;;;;;;9.82;7.95;;;;;;;10.40;57.50;101113.94;4991898;28;102134;-51
2022/03/27 02:44:55;;;;;;;8.50;7.32;;;;;;;10.38;57.93;101119.63;4992203;28;103827;-51
2022/03/27 02:47:23;;;;;;;11.82;7.85;;;;;;;10.39;57.55;101126.72;4992323;28;102531;-51
2022/03/27 02:49:50;;;;;;;10.18;7.65;;;;;;;10.40;57.66;101132.97;4991880;28;102405;-51
2022/03/27 02:52:26;;;;;;;11.50;7.70;;;;;;;10.40;57.69;101143.84;4991886;28;102343;-51
2022/03/27 02:54:52;;;;;;;11.10;7.20;;;;;;;10.39;57.78;101132.16;4991980;28;103694;-51
2022/03/27 02:57:19;;;;;;;9.40;7.93;;;;;;;10.39;58.20;101139.50;4989226;28;102302;-51
2022/03/27 02:59:47;;;;;;;9.75;7.07;;;;;;;10.39;57.47;101155.81;4991227;28;102452;-51
2022/03/27 03:02:14;;;;;;;10.13;6.85;;;;;;;10.39;57.67;101161.28;4992109;28;102126;-50
2022/03/27 03:04:42;;;;;;;11.32;7.78;;;;;;;10.38;57.85;101163.16;4990729;28;103848;-51
2022/03/27 03:07:11;;;;;;;8.68;7.28;;;;;;;10.39;58.07;101169.44;4992078;28;101888;-51
2022/03/27 03:09:37;;;;;;;10.02;7.45;;;;;;;10.38;57.44;101178.66;4989787;28;102218;-50
2022/03/27 03:12:05;;;;;;;10.05;7.70;;;;;;;10.38;57.84;101187.63;4989564;28;102064;-50
2022/03/27 03:14:33;;;;;;;10.05;7.47;;;;;;;10.38;57.71;101198.50;4977257;28;103739;-51
2022/03/27 03:17:00;;;;;;;9.95;7.15;;;;;;;10.38;57.61;101194.97;4979965;28;102055;-51
2022/03/27 03:19:26;;;;;;;8.18;6.60;;;;;;;10.39;57.82;101197.47;4990209;28;102377;-51
2022/03/27 03:21:55;;;;;;;9.05;7.20;;;;;;;10.38;58.32;101203.13;4992354;28;102273;-51
2022/03/27 03:24:25;;;;;;;;;;;;;;;10.39;57.92;101215.69;4989308;28;103733;-50
2022/03/27 03:26:53;;;;;;;10.02;7.25;;;;;;;10.38;57.95;101222.19;4989747;28;101894;-51
2022/03/27 03:29:21;;;;;;;8.70;7.20;;;;;;;10.38;57.92;101223.00;4991169;28;101885;-51
2022/03/27 03:31:47;;;;;;;8.40;7.22;;;;;;;10.39;57.71;101234.72;4992498;28;102385;-51
2022/03/27 03:34:15;;;;;;;8.70;7.40;;;;;;;10.38;57.87;101230.34;4988656;28;104253;-51
2022/03/27 03:36:41;;;;;;;9.07;6.95;;;;;;;10.38;58.17;101246.66;4991716;28;102259;-50
2022/03/27 03:39:10;;;;;;;8.82;7.18;;;;;;;10.38;58.27;101250.22;4980219;28;102139;-51
2022/03/27 03:41:37;;;;;;;8.07;6.57;;;;;;;10.37;58.12;101254.00;4992335;28;102304;-51
2022/03/27 03:44:04;;;;;;;7.93;6.60;;;;;;;10.37;57.85;101264.91;4988815;28;103702;-51
2022/03/27 03:46:31;;;;;;;8.32;6.97;;;;;;;10.37;57.50;101269.53;4991391;28;101937;-51
2022/03/27 03:48:57;;;;;;;8.43;7.13;;;;;;;10.39;58.03;101272.81;4971167;28;101930;-52
2022/03/27 03:51:24;;;;;;;9.27;6.82;;;;;;;10.38;57.87;101271.16;4989718;28;102144;-51
2022/03/27 03:53:51;;;;;;;9.68;6.80;;;;;;;10.37;58.13;101283.13;4984888;28;103013;-50
2022/03/27 03:56:18;;;;;;;8.00;6.85;;;;;;;10.37;58.20;101281.22;4990985;28;102278;-51
2022/03/27 03:58:46;;;;;;;7.95;6.82;;;;;;;10.38;58.03;101288.31;4982147;28;102224;-51
2022/03/27 04:01:12;;;;;;;8.15;6.53;;;;;;;10.37;58.28;101285.84;4973233;28;102223;-50
2022/03/27 04:03:39;;;;;;;8.70;6.53;;;;;;;10.37;58.09;101291.28;4971424;28;103798;-52
2022/03/27 04:06:07;;;;;;;7.15;6.18;;;;;;;10.37;58.34;101296.72;4973698;28;102920;-50
2022/03/27 04:08:36;;;;;;;8.80;6.82;;;;;;;10.38;57.84;101298.38;4972861;28;102446;-50
2022/03/27 04:11:03;;;;;;;7.78;6.57;;;;;;;10.38;57.96;101287.47;4987502;28;102258;-51
2022/03/27 04:13:33;;;;;;;8.77;7.40;;;;;;;10.37;58.48;101296.72;4994994;28;103897;-51
2022/03/27 04:16:00;;;;;;;9.90;6.70;;;;;;;10.37;58.04;101307.63;4977261;28;102413;-50
2022/03/27 04:18:40;;;;;;;9.82;6.43;;;;;;;10.37;58.09;101318.50;4974823;28;102283;-51
2022/03/27 04:21:07;;;;;;;6.70;5.70;;;;;;;10.37;57.72;101329.38;4994103;28;102143;-51
2022/03/27 04:23:34;;;;;;;8.52;6.30;;;;;;;10.35;58.17;101332.38;4994089;28;103917;-51
2022/03/27 04:26:02;;;;;;;7.47;6.55;;;;;;;10.37;58.01;101334.81;4995394;28;102074;-51
2022/03/27 04:28:29;;;;;;;10.18;6.60;;;;;;;10.37;58.45;101338.38;4994352;28;102074;-51
2022/03/27 04:30:57;;;;;;;6.88;6.15;;;;;;;10.37;58.37;101351.16;4988022;28;102217;-51
2022/03/27 04:33:24;;;;;;;8.07;6.10;;;;;;;10.35;58.02;101359.56;4974384;28;103859;-51
2022/03/27 04:35:51;;;;;;;9.52;6.45;;;;;;;10.36;58.08;101371.28;4991245;28;102045;-51
2022/03/27 04:38:18;;;;;;;7.82;6.25;;;;;;;10.34;57.74;101380.50;4994507;28;102474;-51
2022/03/27 04:40:46;;;;;;;7.70;6.00;;;;;;;10.34;57.81;101393.28;4993922;28;102861;-51
2022/03/27 04:43:13;;;;;;;8.60;6.50;;;;;;;10.33;57.43;101416.94;4993396;28;103993;-50
2022/03/27 04:45:40;;;;;;;8.10;6.20;;;;;;;10.32;57.80;101407.16;4992405;28;102108;-51
2022/03/27 04:48:09;;;;;;;9.73;6.28;;;;;;;10.31;58.03;101415.53;4994150;28;101898;-52
2022/03/27 04:50:39;;;;;;;10.57;6.03;;;;;;;10.30;56.84;101432.94;4987331;28;102384;-51
2022/03/27 04:53:06;;;;;;;9.98;5.90;;;;;;;10.30;57.06;101432.94;4993642;28;103932;-51
2022/03/27 04:55:32;;;;;;;7.38;5.22;;;;;;;10.30;57.68;101439.22;4994616;28;102340;-51
2022/03/27 04:57:59;;;;;;;9.73;6.15;;;;;;;10.29;57.55;101437.56;4993437;28;102459;-50
2022/03/27 05:00:26;;;;;;;8.35;5.25;;;;;;;10.29;57.40;101437.56;4991681;28;102463;-50
2022/03/27 05:02:53;;;;;;;5.68;4.93;;;;;;;10.30;57.24;101447.38;4991334;28;103903;-51
2022/03/27 05:05:21;;;;;;;9.70;5.93;;;;;;;10.30;57.09;101455.53;4995233;28;101945;-51
2022/03/27 05:07:48;;;;;;;8.27;4.93;;;;;;;10.30;56.69;101455.53;4993868;28;102243;-50
2022/03/27 05:10:15;;;;;;;8.75;5.03;;;;;;;10.31;57.15;101461.81;4994617;28;102176;-51
2022/03/27 05:12:42;;;;;;;6.47;5.00;;;;;;;10.31;57.37;101461.81;4988850;28;103992;-51
2022/03/27 05:15:09;;;;;;;6.32;4.80;;;;;;;10.31;57.02;101478.97;4995080;28;102159;-51
2022/03/27 05:17:50;;;;;;;8.88;4.47;;;;;;;10.32;57.37;101477.88;4990543;28;102506;-51
2022/03/27 05:20:21;;;;;;;8.05;4.47;;;;;;;10.34;57.18;101478.44;4990867;28;102261;-51
2022/03/27 05:22:48;;;;;;;10.85;4.85;;;;;;;10.36;57.74;101488.28;4980378;28;103990;-51
2022/03/27 05:25:16;;;;;;;10.05;4.72;;;;;;;10.36;57.52;101477.41;4992429;28;102399;-51
2022/03/27 05:27:44;;;;;;;6.78;4.47;;;;;;;10.37;57.75;101488.00;4990793;28;102202;-51
2022/03/27 05:30:11;;;;;;;9.80;4.68;;;;;;;10.38;57.31;101477.94;4994686;28;101949;-50
2022/03/27 05:32:38;;;;;;;8.60;4.25;;;;;;;10.39;57.70;101474.16;4992634;28;104158;-51
2022/03/27 05:35:07;;;;;;;6.40;4.00;;;;;;;10.39;57.29;101490.50;4993710;28;102307;-51
2022/03/27 05:37:37;;;;;;;5.45;3.78;;;;;;;10.40;57.44;101481.25;4993115;28;102458;-51
2022/03/27 05:40:06;;;;;;;10.20;4.30;;;;;;;10.40;57.17;101476.63;4994753;28;102773;-51
2022/03/27 05:42:35;;;;;;;6.18;4.40;;;;;;;10.41;57.09;101488.34;4992319;28;103923;-51
2022/03/27 05:45:01;;;;;;;6.00;3.88;;;;;;;10.40;57.56;101486.69;4986326;28;102279;-51
2022/03/27 05:47:29;;;;;;;5.53;3.35;;;;;;;10.41;57.83;101493.78;4992195;28;102397;-51
2022/03/27 05:49:56;;;;;;;6.88;3.92;;;;;;;10.41;57.08;101486.44;4994357;28;102074;-51
2022/03/27 05:52:23;;;;;;;8.02;4.07;;;;;;;10.41;57.57;101499.22;4992718;28;104061;-51
2022/03/27 05:54:51;;;;;;;7.97;3.80;;;;;;;10.41;57.30;101499.22;4989903;28;102050;-51
2022/03/27 05:57:18;;;;;;;7.47;4.00;;;;;;;10.40;57.23;101511.19;4985541;28;102311;-51
2022/03/27 05:59:46;;;;;;;8.30;3.60;;;;;;;10.42;56.79;101500.84;4979647;28;104082;-51
2022/03/27 06:02:14;;;;;;;7.20;4.68;;;;;;;10.41;57.33;101526.44;4985176;28;104175;-51
2022/03/27 06:04:41;;;;;;;8.93;4.00;;;;;;;10.41;56.95;101512.81;4985964;28;102515;-51
2022/03/27 06:07:09;;;;;;;8.83;3.70;;;;;;;10.40;57.26;101513.91;4987794;28;102206;-52
2022/03/27 06:09:37;;;;;;;10.27;3.63;;;;;;;10.40;56.97;101524.78;4977549;28;102819;-51
2022/03/27 06:12:06;;;;;;;6.90;3.25;;;;;;;10.41;57.12;101515.53;4986572;28;103729;-51
2022/03/27 06:14:36;;;;;;;5.07;3.42;;;;;;;10.41;57.08;101521.00;4993064;28;101945;-50
2022/03/27 06:17:03;;;;;;;11.43;3.65;;;;;;;10.40;57.04;101519.34;4992867;28;101972;-51
2022/03/27 06:19:30;;;;;;;9.05;3.47;;;;;;;10.39;56.57;101526.69;4993275;28;102159;-51
2022/03/27 06:21:57;;;;;;;13.50;4.00;;;;;;;10.39;55.93;101534.03;4992517;28;103972;-50
2022/03/27 06:24:26;;;;;;;;;;;;;;;10.38;56.48;101526.94;4993090;28;102284;-50
2022/03/27 06:26:53;;;;;;;7.30;3.78;;;;;;;10.38;56.23;101543.25;4992596;28;102507;-52
2022/03/27 06:29:21;;;;;;;8.65;3.38;;;;;;;10.37;56.02;101542.44;4992908;28;102411;-51
2022/03/27 06:31:50;;;;;;;7.03;3.38;;;;;;;10.38;55.92;101540.53;4992064;28;103848;-51
2022/03/27 06:34:18;;;;;;;8.82;3.65;;;;;;;10.38;56.03;101548.69;4992178;28;102379;-50
2022/03/27 06:36:45;;;;;;;6.10;3.05;;;;;;;10.37;55.76;101552.50;4992171;28;102279;-50
2022/03/27 06:39:13;;;;;;;5.60;3.00;;;;;;;10.36;55.73;101539.97;4992892;28;102719;-50
2022/03/27 06:41:40;;;;;;;6.07;3.08;;;;;;;10.37;56.57;101547.06;4986755;28;103874;-51
2022/03/27 06:44:06;;;;;;;5.55;3.20;;;;;;;10.37;56.32;101555.22;4991500;28;102540;-52
2022/03/27 06:46:34;;;;;;;7.22;3.08;;;;;;;10.38;56.86;101556.84;4991905;28;102448;-51
2022/03/27 06:49:02;;;;;;;;;;;;;;;10.39;56.52;101561.25;4993061;28;102280;-50
2022/03/27 06:51:28;;;;;;;7.05;2.70;;;;;;;10.39;56.60;101567.50;4991906;28;104045;-51
2022/03/27 06:53:56;;;;;;;9.35;2.75;;;;;;;10.39;56.04;101566.69;4991294;28;102332;-51
2022/03/27 06:56:22;;;;;;;5.95;3.28;;;;;;;10.38;56.08;101560.41;4987948;28;102201;-50
2022/03/27 06:58:50;;;;;;;4.55;2.90;;;;;;;10.39;56.00;101562.06;4986635;28;102147;-50
2022/03/27 07:04:04;;;;;;;7.35;2.83;;;;;;;10.37;55.53;101560.66;4990006;28;102481;-50
2022/03/27 07:06:31;;;;;;;6.53;2.47;;;;;;;10.37;55.85;101563.38;4990735;28;102175;-51
2022/03/27 07:08:59;;;;;;;8.32;3.40;;;;;;;10.37;55.60;101563.38;4993001;28;102193;-50
2022/03/27 07:11:29;;;;;;;4.75;2.90;;;;;;;10.38;55.61;101570.47;4991320;28;103786;-51
2022/03/27 07:13:56;;;;;;;7.18;2.90;;;;;;;10.39;56.18;101574.84;4991858;28;102524;-51
2022/03/27 07:16:26;;;;;;;6.53;2.80;;;;;;;10.40;56.38;101585.47;4992263;28;102193;-50
2022/03/27 07:18:53;;;;;;;3.60;2.30;;;;;;;10.40;56.05;101590.91;4992235;28;102604;-50
2022/03/27 07:21:29;;;;;;;5.10;2.80;;;;;;;10.40;55.66;101579.22;4991380;28;104561;-50
2022/03/27 07:23:58;;;;;;;5.90;3.10;;;;;;;10.41;56.54;101583.56;4991372;28;102307;-51
2022/03/27 07:26:24;;;;;;;5.57;2.72;;;;;;;10.41;56.39;101594.47;4992000;28;102425;-51
2022/03/27 07:28:51;;;;;;;10.18;2.50;;;;;;;10.42;56.14;101604.25;4992295;28;102157;-50
2022/03/27 07:31:18;;;;;;;10.52;3.03;;;;;;;10.42;56.51;101604.25;4972397;28;103902;-50
2022/03/27 07:33:45;;;;;;;8.05;3.00;;;;;;;10.41;55.75;101594.47;4973306;28;102368;-50
2022/03/27 07:36:11;;;;;;;5.50;2.22;;;;;;;10.41;55.95;101597.19;4990134;28;102406;-50
2022/03/27 07:38:39;;;;;;;5.80;2.33;;;;;;;10.40;56.23;101590.91;4991227;28;102533;-50
2022/03/27 07:41:06;;;;;;;4.83;2.40;;;;;;;10.41;55.94;101586.28;4990781;28;103881;-51
2022/03/27 07:43:33;;;;;;;6.82;2.63;;;;;;;10.40;55.55;101611.88;4990546;28;101954;-51
2022/03/27 07:46:00;;;;;;;6.68;2.35;;;;;;;10.40;56.06;101607.25;4991633;28;102319;-51
2022/03/27 07:48:27;;;;;;;6.63;2.53;;;;;;;10.41;55.44;101605.34;4991498;28;102616;-51
2022/03/27 07:50:56;;;;;;;7.55;2.80;;;;;;;10.42;55.73;101621.44;4990885;28;103940;-50
2022/03/27 07:53:23;;;;;;;8.23;3.03;;;;;;;10.42;55.74;101620.59;4987650;28;102323;-50
2022/03/27 07:55:51;;;;;;;5.88;2.33;;;;;;;10.44;56.05;101632.06;4987121;28;102157;-50
2022/03/27 07:58:18;;;;;;;6.07;2.20;;;;;;;10.44;56.28;101615.72;4985480;28;102576;-50
2022/03/27 08:00:45;;;;;;;5.15;2.08;;;;;;;10.44;56.07;101626.63;4986550;28;104204;-51
2022/03/27 08:03:12;;;;;;;7.25;2.13;;;;;;;10.45;55.72;101630.97;4989842;28;102335;-50
2022/03/27 08:05:38;;;;;;;5.97;2.60;;;;;;;10.46;56.02;101627.22;4988995;28;101994;-50
2022/03/27 08:08:06;;;;;;;5.97;2.33;;;;;;;10.46;55.94;101622.59;4988626;28;102153;-50
2022/03/27 08:10:45;;;;;;;;;;;;;;;10.47;56.02;101615.25;4991352;28;103978;-50
2022/03/27 08:13:13;;;;;;;9.57;2.47;;;;;;;10.46;55.85;101627.22;4986574;28;102335;-51
2022/03/27 08:15:40;;;;;;;5.97;2.60;;;;;;;10.46;56.01;101638.09;4986214;28;102028;-50
2022/03/27 08:18:08;;;;;;;5.43;2.20;;;;;;;10.47;55.92;101635.13;4987497;28;102631;-50
2022/03/27 08:20:35;;;;;;;6.25;2.20;;;;;;;10.47;55.47;101628.84;4979217;28;103914;-50
2022/03/27 08:23:03;;;;;;;6.78;2.50;;;;;;;10.49;56.41;101634.84;4989879;28;103691;-51
2022/03/27 08:28:19;;;;;;;6.00;2.30;;;;;;;10.50;55.86;101633.81;4991890;28;102075;-51
2022/03/27 08:30:46;;;;;;;6.35;2.17;;;;;;;10.49;56.05;101641.13;4989425;28;103864;-51
2022/03/27 08:33:13;;;;;;;6.25;2.10;;;;;;;10.50;55.92;101633.81;4990752;28;102164;-50
2022/03/27 08:35:41;;;;;;;5.90;2.78;;;;;;;10.51;55.99;101657.22;4987068;28;102308;-50
2022/03/27 08:38:08;;;;;;;6.37;2.13;;;;;;;10.52;55.55;101628.91;4989195;28;102208;-51
2022/03/27 08:40:38;;;;;;;5.30;2.00;;;;;;;10.51;55.80;101635.44;4981102;28;103736;-50
2022/03/27 08:43:08;;;;;;;3.63;2.00;;;;;;;10.50;55.60;101628.34;4989622;28;102516;-51
2022/03/27 08:45:36;;;;;;;4.60;2.03;;;;;;;10.51;55.27;101633.53;4988374;28;104425;-50
2022/03/27 08:48:04;;;;;;;4.28;1.95;;;;;;;10.51;55.98;101647.16;4990525;28;102261;-50
2022/03/27 08:50:37;;;;;;;5.93;2.17;;;;;;;10.51;55.88;101630.81;4989896;28;104081;-51
2022/03/27 08:53:05;;;;;;;4.93;2.00;;;;;;;10.52;55.59;101631.63;4990907;28;101874;-50
2022/03/27 08:55:38;;;;;;;4.53;2.40;;;;;;;10.52;55.67;101628.91;4990584;28;102341;-50
2022/03/27 08:58:07;;;;;;;7.43;2.10;;;;;;;10.52;55.75;101637.91;4993863;28;102100;-51
2022/03/27 09:00:34;;;;;;;7.88;2.22;;;;;;;10.53;55.00;101638.72;4992495;28;104042;-50
2022/03/27 09:03:04;;;;;;;6.93;2.38;;;;;;;10.53;55.57;101622.38;4993521;28;102268;-52
2022/03/27 09:05:34;;;;;;;6.72;2.20;;;;;;;10.52;55.67;101643.34;4990703;28;102021;-50
2022/03/27 09:08:03;;;;;;;5.70;2.28;;;;;;;10.53;55.77;101644.16;4993097;28;102920;-51
2022/03/27 09:10:30;;;;;;;9.60;2.13;;;;;;;10.53;55.40;101655.06;4990870;28;104123;-50
2022/03/27 09:12:58;;;;;;;5.00;2.28;;;;;;;10.53;55.42;101655.06;4988405;28;102456;-50
2022/03/27 09:15:25;;;;;;;3.95;1.85;;;;;;;10.54;55.63;101664.88;4991924;28;102406;-51
2022/03/27 09:17:59;;;;;;;8.02;2.38;;;;;;;10.53;55.57;101668.66;4990123;28;102405;-50
2022/03/27 09:20:33;;;;;;;6.00;2.00;;;;;;;10.53;55.53;101660.50;4992185;28;104028;-50
2022/03/27 09:23:16;;;;;;;5.75;2.33;;;;;;;10.53;55.53;101671.38;4986776;28;102051;-51
2022/03/27 09:25:44;;;;;;;7.25;2.08;;;;;;;10.53;55.85;101665.94;4993547;28;102069;-51
2022/03/27 09:28:11;;;;;;;5.78;2.25;;;;;;;10.53;55.54;101666.78;4986395;28;102596;-50
2022/03/27 09:30:38;;;;;;;7.20;2.33;;;;;;;10.53;55.15;101671.38;4983162;28;104071;-50
2022/03/27 09:33:04;;;;;;;5.32;2.05;;;;;;;10.53;55.53;101665.94;4976873;28;102307;-51
2022/03/27 09:35:33;;;;;;;6.88;2.60;;;;;;;10.52;55.17;101669.75;4992494;28;102113;-51
2022/03/27 09:38:10;;;;;;;3.50;2.17;;;;;;;10.52;54.93;101658.84;4992080;28;102732;-53
2022/03/27 09:40:39;;;;;;;5.18;2.35;;;;;;;10.53;55.00;101660.50;4983488;28;103901;-51
2022/03/27 09:43:11;;;;;;;5.90;1.95;;;;;;;10.52;55.62;101662.41;4988156;28;102276;-52
2022/03/27 09:45:37;;;;;;;7.93;1.60;;;;;;;10.53;55.62;101649.59;4984179;28;101978;-51
2022/03/27 09:48:08;;;;;;;4.20;2.00;;;;;;;10.53;55.14;101660.50;4993312;28;102340;-51
2022/03/27 09:50:39;;;;;;;5.55;2.10;;;;;;;10.53;55.89;101650.47;4978074;28;103978;-51
2022/03/27 09:53:22;;;;;;;7.32;2.35;;;;;;;10.53;55.87;101641.44;4987869;28;101922;-51
2022/03/27 09:55:54;;;;;;;4.22;2.30;;;;;;;10.52;55.34;101637.09;4987530;28;103101;-51
2022/03/27 09:58:34;;;;;;;5.45;2.05;;;;;;;10.53;55.69;101644.16;4978362;28;102271;-50
2022/03/27 10:01:11;;;;;;;9.57;2.60;;;;;;;10.52;54.86;101637.09;4989666;28;104084;-51
2022/03/27 10:03:57;;;;;;;6.28;2.33;;;;;;;10.51;55.68;101628.09;4979312;28;102408;-51
2022/03/27 10:06:31;;;;;;;4.35;2.15;;;;;;;10.52;55.18;101650.69;4992587;28;101931;-51
2022/03/27 10:08:59;;;;;;;5.07;2.20;;;;;;;10.51;55.14;101651.78;4993104;28;102688;-51
2022/03/27 10:11:29;;;;;;;6.35;2.60;;;;;;;10.49;54.43;101635.66;4993214;28;103990;-51
2022/03/27 10:13:56;;;;;;;5.30;2.28;;;;;;;10.49;54.80;101651.19;4990372;28;102143;-51
2022/03/27 10:16:28;;;;;;;7.32;2.50;;;;;;;10.49;54.82;101637.56;4992800;28;101879;-50
2022/03/27 10:18:59;;;;;;;5.57;2.92;;;;;;;10.50;55.08;101633.81;4991247;28;102370;-50
2022/03/27 10:21:26;;;;;;;6.43;2.55;;;;;;;10.47;54.04;101626.94;4990650;28;104051;-51
2022/03/27 10:24:05;;;;;;;5.28;1.98;;;;;;;10.49;55.01;101659.34;4996521;28;101994;-51
2022/03/27 10:26:33;;;;;;;8.80;2.47;;;;;;;10.49;55.28;101656.63;4992431;28;101979;-51
2022/03/27 10:29:01;;;;;;;5.50;2.10;;;;;;;10.48;55.04;101663.16;4990816;28;102361;-51
2022/03/27 10:31:30;;;;;;;5.63;2.10;;;;;;;10.47;54.28;101639.72;4987127;28;103954;-51
2022/03/27 10:34:00;;;;;;;7.07;2.35;;;;;;;10.46;55.21;101635.38;4989282;28;102407;-51
2022/03/27 10:36:39;;;;;;;8.23;2.28;;;;;;;10.46;54.94;101644.34;4989193;28;102379;-51
2022/03/27 10:39:14;;;;;;;8.45;2.60;;;;;;;10.46;54.52;101628.03;4989327;28;102138;-51
2022/03/27 10:41:51;;;;;;;7.18;2.55;;;;;;;10.47;55.09;101623.41;4992246;28;103907;-51
2022/03/27 10:44:26;;;;;;;5.35;2.63;;;;;;;10.47;55.02;101656.88;4993772;28;101771;-51
2022/03/27 10:47:12;;;;;;;8.30;2.97;;;;;;;10.46;54.59;101638.09;4991162;28;102458;-51
2022/03/27 10:49:42;;;;;;;5.35;2.70;;;;;;;10.46;54.60;101651.69;4990822;28;102055;-51
2022/03/27 10:52:09;;;;;;;8.70;2.15;;;;;;;10.46;54.20;101646.25;4988727;28;103932;-51
2022/03/27 10:55:01;;;;;;;6.93;2.28;;;;;;;10.46;54.47;101648.97;4988541;28;102390;-51
2022/03/27 10:57:30;;;;;;;6.13;2.83;;;;;;;10.46;55.21;101632.66;4992120;28;102058;-51
2022/03/27 10:59:57;;;;;;;6.43;2.45;;;;;;;10.46;54.99;101648.97;4989257;28;102169;-50
2022/03/27 11:02:45;;;;;;;6.05;2.65;;;;;;;10.45;54.57;101659.00;4984374;28;104123;-51
2022/03/27 11:05:47;;;;;;;8.18;2.42;;;;;;;10.45;54.62;101659.00;4987014;28;103265;-50
2022/03/27 11:08:46;;;;;;;8.73;2.63;;;;;;;10.45;54.14;101655.47;4965567;28;102645;-51
2022/03/27 11:11:58;;;;;;;6.13;2.15;;;;;;;10.44;54.43;101667.44;4983264;28;102213;-51
2022/03/27 11:14:54;;;;;;;5.57;2.08;;;;;;;10.45;55.07;101663.63;4943693;28;103825;-51
2022/03/27 11:17:45;;;;;;;10.55;2.08;;;;;;;10.45;54.62;101677.25;4988085;28;102345;-51
2022/03/27 11:20:53;;;;;;;5.15;1.95;;;;;;;10.44;54.31;101637.50;4990835;28;101989;-51
2022/03/27 11:23:25;;;;;;;10.20;2.75;;;;;;;10.44;54.19;101664.72;4975461;28;102219;-51
2022/03/27 11:25:52;;;;;;;6.65;2.65;;;;;;;10.44;54.62;101678.31;4971350;28;103841;-51
2022/03/27 11:28:22;;;;;;;4.47;2.00;;;;;;;10.45;54.52;101688.13;4972629;28;101961;-50
2022/03/27 11:31:15;;;;;;;5.47;1.75;;;;;;;10.45;54.93;101680.78;4978913;28;102824;-51
2022/03/27 11:33:46;;;;;;;5.32;1.83;;;;;;;10.44;54.60;101700.91;4984196;28;102138;-51
2022/03/27 11:36:24;;;;;;;6.00;2.30;;;;;;;10.43;55.00;101703.91;4990909;28;104216;-51